Historyczne dane pomiarowe

Dodano dane terminowe – wersja testowa.

Dane z okresu 1951-2019

Wersja bazy: 1.34 [2019-03-16, lista zmian], aktualizacja planowana na 2019-04-15

Dane meteo z obszaru Polski uzyskane na podstawie danych udostępnionych przez Instytut Meteorologii i Gospodarki Wodnej – Państwowy Instytut Badawczy.

 

Wybierz Datę:    

       

TemperaturaWilgotnośćWiatrCiśnienieOpadyŚniegCzas trwania zjawisk
 Stacja t tx tn tng RH VA  wxwx mslp ppp RRR   cm mm wxwxwxwxwxwxwx
1994-08-14 13.9 17.5 11.0 0.0-- 5.7 5.3---- 0.2------------
1994-08-13 16.6 22.1 14.2 0.0-- 8.0 6.3---- 3.1------------
1994-08-12 18.5 23.0 15.9 0.0-- 6.7 2.0---- 6.7------------
1994-08-11 19.1 23.2 16.9 0.0-- 6.7 2.7---- 8.9------------
1994-08-10 20.2 27.5 13.3 11.8-- 4.0 0.3---- 0.0------------
1994-08-09 18.7 22.8 17.4 14.2-- 7.3 1.3---- 23.8------------
1994-08-08 21.3 25.8 18.9 17.7-- 5.3 1.0---- 15.0------------
1994-08-07 22.6 28.2 16.9 13.8-- 5.0 2.7---- 0.8------------
1994-08-06 24.8 34.9 15.3 12.3-- 3.0 1.3---- 0.5------------
1994-08-05 24.1 33.7 14.0 11.3-- 1.3 0.7---- 0.0------------
1994-08-04 23.2 29.9 16.7 13.3-- 1.0 1.7---- 0.0------------
1994-08-03 24.8 30.5 20.4 18.6-- 1.7 2.3---- 0.0------------
1994-08-02 25.9 33.5 20.3 16.4-- 4.7 2.3---- 0.0------------
1994-08-01 26.1 36.9 16.5 13.5-- 3.0 1.0---- 0.0------------
1994-07-31 27.3 36.6 17.1 13.8-- 2.3 1.7---- 0.0------------
1994-07-30 26.2 36.7 14.3 11.8-- 0.7 1.0---- 0.0------------
1994-07-29 25.9 35.9 13.3 10.4-- 0.7 0.7---- 0.0------------
1994-07-28 25.3 35.1 13.8 10.4-- 1.0 1.0---- 0.0------------
1994-07-27 25.4 34.7 14.0 10.7-- 1.7 1.3---- 0.0------------
1994-07-26 24.8 34.5 13.3 9.9-- 1.3 1.0---- 0.0------------
1994-07-25 24.0 33.4 12.8 9.3-- 1.0 0.7---- 0.0------------
1994-07-24 22.3 32.1 11.3 8.8-- 1.3 1.0---- 0.0------------
1994-07-23 21.5 30.4 10.3 7.8-- 0.0 2.3---- 0.0------------
1994-07-22 20.9 28.4 10.8 7.8-- 0.3 2.3---- 0.0------------
1994-07-21 21.4 27.7 8.8 5.7-- 0.0 1.7---- 0.0------------
1994-07-20 18.4 25.0 8.8 5.4-- 1.0 1.7---- 0.0------------
1994-07-19 19.0 24.4 11.8 9.9-- 2.3 3.0---- 0.0------------
1994-07-18 20.3 25.5 15.8 14.1-- 5.3 3.0---- 0.0------------
1994-07-17 22.0 27.8 16.3 15.2-- 6.0 1.0---- 0.0------------
1994-07-16 21.4 30.7 15.2 13.3-- 4.0 1.3---- 4.8------------
1994-07-15 24.0 31.1 15.1 11.8-- 2.3 1.7---- 0.0------------
1994-07-14 23.8 32.3 13.6 11.3-- 1.7 1.3---- 0.0------------
1994-07-13 23.5 30.4 12.8 10.4-- 1.7 1.3---- 0.0------------
1994-07-12 23.8 28.3 18.4 13.8-- 1.7 1.0---- 0.0------------
1994-07-11 21.5 28.0 13.6 12.4-- 2.7 2.7---- 0.0------------
1994-07-10 18.9 25.4 13.2 12.1-- 5.7 4.0---- 0.0------------
1994-07-09 15.2 18.6 12.6 10.1-- 8.0 4.7---- 0.9------------
1994-07-08 14.9 22.0 12.8 12.1-- 7.7 5.3---- 14.9------------
1994-07-07 19.3 27.8 7.8 5.6-- 3.7 2.0---- 6.0------------
1994-07-06 18.9 26.0 9.6 6.7-- 5.0 2.0---- 0.0------------
1994-07-05 19.7 26.8 10.5 7.6-- 5.3 1.7---- 0.0------------
1994-07-04 22.2 29.4 9.3 6.6-- 0.0 1.7---- 0.0------------
1994-07-03 20.4 28.2 7.3 4.0-- 0.7 1.0---- 0.0------------
1994-07-02 18.2 25.5 7.8 4.6-- 0.0 1.3---- 0.0------------
1994-07-01 17.8 24.0 8.3 5.1-- 1.3 1.7---- 0.0------------
1994-06-30 21.6 30.1 18.3 12.5-- 3.7 3.3---- 0.0------------
1994-06-29 26.3 33.5 15.9 10.0-- 1.0 1.7---- 0.0------------
1994-06-28 23.6 30.5 16.4 9.5-- 3.0 1.3---- 0.0------------
1994-06-27 24.1 30.9 14.1 8.5-- 1.7 2.0---- 0.0------------
1994-06-26 21.5 30.7 9.6 3.0-- 1.0 2.3---- 0.0------------
1994-06-25 16.1 25.2 3.7 -2.9-- 0.0 1.0---- 0.0------------
1994-06-24 14.3 20.2 6.8 1.5-- 2.0 5.0---- 0.0------------
1994-06-23 16.7 21.6 13.6 8.5-- 3.3 7.0---- 0.0------------
1994-06-22 18.3 25.0 10.3 2.0-- 6.7 5.7---- 0.0------------
1994-06-21 16.1 21.5 6.0 -0.5-- 1.0 1.7---- 0.0------------
1994-06-20 17.5 21.6 15.0 10.0-- 4.3 6.0---- 0.0------------
1994-06-19 17.1 23.0 11.8 8.5-- 6.3 5.3---- 0.0------------
1994-06-18 12.1 19.0 3.9 -2.5-- 5.3 2.0---- 10.5------------
1994-06-17 11.0 14.5 8.8 5.0-- 6.0 5.3---- 0.4------------
1994-06-16 10.8 16.5 7.3 0.5-- 8.0 4.3---- 0.9------------
603.9 ms

 

Źródłem pochodzenia danych jest Instytut Meteorologii i Gospodarki Wodnej – Państwowy Instytut Badawczy. Dane Instytutu Meteorologii i Gospodarki Wodnej – Państwowego Instytutu Badawczego zostały przetworzone.

Dane źródłowe można odnaleźć na stronie https://dane.imgw.pl